<?xml version="1.0" encoding="UTF-8"?>
<gpx version="1.0" creator="Gaggle https://github.com/geeksville/Gaggle" xmlns:xsi="http://www.w3.org/2001/XMLSchema-instance" xmlns="http://www.topografix.com/GPX/1/0" xsi:schemaLocation="http://www.topografix.com/GPX/1/0 http://www.topografix.com/GPX/1/0/gpx.xsd">
<trk>
	<name>Jorgev's flight</name>
	<desc>
	Pilot name:	Jorgev
	Pilot ID:	
	Glider type:	Rush 2
	</desc>
	<trkseg>
		<trkpt lat="37.142335" lon="-3.518841">
			<ele>1338.000000</ele>
		<time>2015-04-25T10:26:36Z</time>
		</trkpt>

		<trkpt lat="37.142406" lon="-3.518915">
			<ele>1327.000000</ele>
		<time>2015-04-25T10:28:45Z</time>
		</trkpt>

		<trkpt lat="37.142426" lon="-3.518891">
			<ele>1324.000000</ele>
		<time>2015-04-25T10:28:52Z</time>
		</trkpt>

		<trkpt lat="37.142444" lon="-3.518857">
			<ele>1323.000000</ele>
		<time>2015-04-25T10:28:57Z</time>
		</trkpt>

		<trkpt lat="37.142474" lon="-3.518851">
			<ele>1322.000000</ele>
		<time>2015-04-25T10:29:01Z</time>
		</trkpt>

		<trkpt lat="37.142457" lon="-3.518888">
			<ele>1321.000000</ele>
		<time>2015-04-25T10:29:06Z</time>
		</trkpt>

		<trkpt lat="37.142445" lon="-3.518922">
			<ele>1323.000000</ele>
		<time>2015-04-25T10:29:10Z</time>
		</trkpt>

		<trkpt lat="37.142419" lon="-3.518903">
			<ele>1320.000000</ele>
		<time>2015-04-25T10:30:20Z</time>
		</trkpt>

		<trkpt lat="37.142389" lon="-3.518903">
			<ele>1318.000000</ele>
		<time>2015-04-25T10:30:32Z</time>
		</trkpt>

		<trkpt lat="37.142411" lon="-3.518883">
			<ele>1317.000000</ele>
		<time>2015-04-25T10:30:52Z</time>
		</trkpt>

		<trkpt lat="37.142416" lon="-3.518916">
			<ele>1317.000000</ele>
		<time>2015-04-25T10:32:52Z</time>
		</trkpt>

		<trkpt lat="37.142419" lon="-3.518950">
			<ele>1321.000000</ele>
		<time>2015-04-25T10:34:51Z</time>
		</trkpt>

		<trkpt lat="37.142419" lon="-3.518988">
			<ele>1324.000000</ele>
		<time>2015-04-25T10:35:36Z</time>
		</trkpt>

		<trkpt lat="37.142447" lon="-3.518994">
			<ele>1324.000000</ele>
		<time>2015-04-25T10:35:49Z</time>
		</trkpt>

		<trkpt lat="37.142463" lon="-3.519031">
			<ele>1324.000000</ele>
		<time>2015-04-25T10:35:53Z</time>
		</trkpt>

		<trkpt lat="37.142476" lon="-3.519098">
			<ele>1326.000000</ele>
		<time>2015-04-25T10:35:56Z</time>
		</trkpt>

		<trkpt lat="37.142532" lon="-3.519208">
			<ele>1325.000000</ele>
		<time>2015-04-25T10:35:59Z</time>
		</trkpt>

		<trkpt lat="37.142573" lon="-3.519341">
			<ele>1324.000000</ele>
		<time>2015-04-25T10:36:02Z</time>
		</trkpt>

		<trkpt lat="37.142589" lon="-3.519473">
			<ele>1323.000000</ele>
		<time>2015-04-25T10:36:05Z</time>
		</trkpt>

		<trkpt lat="37.142628" lon="-3.519592">
			<ele>1319.000000</ele>
		<time>2015-04-25T10:36:08Z</time>
		</trkpt>

		<trkpt lat="37.142651" lon="-3.519714">
			<ele>1316.000000</ele>
		<time>2015-04-25T10:36:11Z</time>
		</trkpt>

		<trkpt lat="37.142731" lon="-3.519929">
			<ele>1313.000000</ele>
		<time>2015-04-25T10:36:14Z</time>
		</trkpt>

		<trkpt lat="37.142873" lon="-3.520118">
			<ele>1310.000000</ele>
		<time>2015-04-25T10:36:17Z</time>
		</trkpt>

		<trkpt lat="37.142947" lon="-3.520378">
			<ele>1311.000000</ele>
		<time>2015-04-25T10:36:20Z</time>
		</trkpt>

		<trkpt lat="37.142986" lon="-3.520565">
			<ele>1322.000000</ele>
		<time>2015-04-25T10:36:23Z</time>
		</trkpt>

		<trkpt lat="37.142959" lon="-3.520853">
			<ele>1320.000000</ele>
		<time>2015-04-25T10:36:26Z</time>
		</trkpt>

		<trkpt lat="37.142986" lon="-3.521069">
			<ele>1310.000000</ele>
		<time>2015-04-25T10:36:29Z</time>
		</trkpt>

		<trkpt lat="37.143059" lon="-3.521327">
			<ele>1306.000000</ele>
		<time>2015-04-25T10:36:32Z</time>
		</trkpt>

		<trkpt lat="37.144464" lon="-3.522831">
			<ele>1302.000000</ele>
		<time>2015-04-25T10:37:07Z</time>
		</trkpt>

		<trkpt lat="37.144775" lon="-3.522940">
			<ele>1297.000000</ele>
		<time>2015-04-25T10:37:10Z</time>
		</trkpt>

		<trkpt lat="37.144995" lon="-3.522984">
			<ele>1295.000000</ele>
		<time>2015-04-25T10:37:13Z</time>
		</trkpt>

		<trkpt lat="37.145211" lon="-3.522948">
			<ele>1291.000000</ele>
		<time>2015-04-25T10:37:16Z</time>
		</trkpt>

		<trkpt lat="37.145426" lon="-3.522887">
			<ele>1291.000000</ele>
		<time>2015-04-25T10:37:19Z</time>
		</trkpt>

		<trkpt lat="37.145626" lon="-3.522717">
			<ele>1287.000000</ele>
		<time>2015-04-25T10:37:22Z</time>
		</trkpt>

		<trkpt lat="37.145767" lon="-3.522508">
			<ele>1286.000000</ele>
		<time>2015-04-25T10:37:25Z</time>
		</trkpt>

		<trkpt lat="37.145903" lon="-3.522290">
			<ele>1282.000000</ele>
		<time>2015-04-25T10:37:28Z</time>
		</trkpt>

		<trkpt lat="37.146053" lon="-3.522030">
			<ele>1281.000000</ele>
		<time>2015-04-25T10:37:31Z</time>
		</trkpt>

		<trkpt lat="37.146228" lon="-3.521816">
			<ele>1279.000000</ele>
		<time>2015-04-25T10:37:34Z</time>
		</trkpt>

		<trkpt lat="37.146432" lon="-3.521774">
			<ele>1275.000000</ele>
		<time>2015-04-25T10:37:37Z</time>
		</trkpt>

		<trkpt lat="37.146529" lon="-3.522055">
			<ele>1272.000000</ele>
		<time>2015-04-25T10:37:40Z</time>
		</trkpt>

		<trkpt lat="37.146399" lon="-3.522264">
			<ele>1277.000000</ele>
		<time>2015-04-25T10:37:43Z</time>
		</trkpt>

		<trkpt lat="37.146195" lon="-3.522411">
			<ele>1274.000000</ele>
		<time>2015-04-25T10:37:46Z</time>
		</trkpt>

		<trkpt lat="37.145973" lon="-3.522474">
			<ele>1275.000000</ele>
		<time>2015-04-25T10:37:49Z</time>
		</trkpt>

		<trkpt lat="37.145704" lon="-3.522501">
			<ele>1270.000000</ele>
		<time>2015-04-25T10:37:52Z</time>
		</trkpt>

		<trkpt lat="37.145440" lon="-3.522532">
			<ele>1270.000000</ele>
		<time>2015-04-25T10:37:55Z</time>
		</trkpt>

		<trkpt lat="37.145231" lon="-3.522615">
			<ele>1269.000000</ele>
		<time>2015-04-25T10:37:58Z</time>
		</trkpt>

		<trkpt lat="37.145064" lon="-3.522702">
			<ele>1268.000000</ele>
		<time>2015-04-25T10:38:01Z</time>
		</trkpt>

		<trkpt lat="37.144882" lon="-3.522837">
			<ele>1265.000000</ele>
		<time>2015-04-25T10:38:04Z</time>
		</trkpt>

		<trkpt lat="37.144730" lon="-3.522968">
			<ele>1260.000000</ele>
		<time>2015-04-25T10:38:07Z</time>
		</trkpt>

		<trkpt lat="37.144554" lon="-3.523110">
			<ele>1260.000000</ele>
		<time>2015-04-25T10:38:10Z</time>
		</trkpt>

		<trkpt lat="37.144352" lon="-3.523196">
			<ele>1259.000000</ele>
		<time>2015-04-25T10:38:13Z</time>
		</trkpt>

		<trkpt lat="37.144278" lon="-3.523404">
			<ele>1254.000000</ele>
		<time>2015-04-25T10:38:16Z</time>
		</trkpt>

		<trkpt lat="37.144313" lon="-3.523593">
			<ele>1253.000000</ele>
		<time>2015-04-25T10:38:19Z</time>
		</trkpt>

		<trkpt lat="37.144484" lon="-3.523640">
			<ele>1250.000000</ele>
		<time>2015-04-25T10:38:22Z</time>
		</trkpt>

		<trkpt lat="37.144702" lon="-3.523571">
			<ele>1246.000000</ele>
		<time>2015-04-25T10:38:25Z</time>
		</trkpt>

		<trkpt lat="37.144860" lon="-3.523341">
			<ele>1243.000000</ele>
		<time>2015-04-25T10:38:28Z</time>
		</trkpt>

		<trkpt lat="37.145045" lon="-3.523164">
			<ele>1244.000000</ele>
		<time>2015-04-25T10:38:31Z</time>
		</trkpt>

		<trkpt lat="37.145181" lon="-3.522906">
			<ele>1245.000000</ele>
		<time>2015-04-25T10:38:34Z</time>
		</trkpt>

		<trkpt lat="37.145326" lon="-3.522630">
			<ele>1243.000000</ele>
		<time>2015-04-25T10:38:37Z</time>
		</trkpt>

		<trkpt lat="37.145438" lon="-3.522386">
			<ele>1242.000000</ele>
		<time>2015-04-25T10:38:40Z</time>
		</trkpt>

		<trkpt lat="37.145616" lon="-3.522207">
			<ele>1242.000000</ele>
		<time>2015-04-25T10:38:43Z</time>
		</trkpt>

		<trkpt lat="37.145838" lon="-3.522133">
			<ele>1240.000000</ele>
		<time>2015-04-25T10:38:46Z</time>
		</trkpt>

		<trkpt lat="37.146011" lon="-3.522023">
			<ele>1232.000000</ele>
		<time>2015-04-25T10:38:49Z</time>
		</trkpt>

		<trkpt lat="37.146229" lon="-3.521928">
			<ele>1228.000000</ele>
		<time>2015-04-25T10:38:52Z</time>
		</trkpt>

		<trkpt lat="37.146422" lon="-3.521865">
			<ele>1228.000000</ele>
		<time>2015-04-25T10:38:55Z</time>
		</trkpt>

		<trkpt lat="37.146603" lon="-3.521900">
			<ele>1224.000000</ele>
		<time>2015-04-25T10:38:58Z</time>
		</trkpt>

		<trkpt lat="37.146754" lon="-3.522103">
			<ele>1223.000000</ele>
		<time>2015-04-25T10:39:01Z</time>
		</trkpt>

		<trkpt lat="37.146823" lon="-3.522305">
			<ele>1224.000000</ele>
		<time>2015-04-25T10:39:04Z</time>
		</trkpt>

		<trkpt lat="37.146770" lon="-3.522537">
			<ele>1223.000000</ele>
		<time>2015-04-25T10:39:07Z</time>
		</trkpt>

		<trkpt lat="37.146668" lon="-3.522774">
			<ele>1224.000000</ele>
		<time>2015-04-25T10:39:10Z</time>
		</trkpt>

		<trkpt lat="37.146479" lon="-3.522951">
			<ele>1222.000000</ele>
		<time>2015-04-25T10:39:13Z</time>
		</trkpt>

		<trkpt lat="37.146288" lon="-3.523106">
			<ele>1220.000000</ele>
		<time>2015-04-25T10:39:16Z</time>
		</trkpt>

		<trkpt lat="37.146067" lon="-3.523185">
			<ele>1218.000000</ele>
		<time>2015-04-25T10:39:19Z</time>
		</trkpt>

		<trkpt lat="37.145817" lon="-3.523255">
			<ele>1217.000000</ele>
		<time>2015-04-25T10:39:22Z</time>
		</trkpt>

		<trkpt lat="37.145585" lon="-3.523258">
			<ele>1216.000000</ele>
		<time>2015-04-25T10:39:25Z</time>
		</trkpt>

		<trkpt lat="37.145342" lon="-3.523291">
			<ele>1214.000000</ele>
		<time>2015-04-25T10:39:28Z</time>
		</trkpt>

		<trkpt lat="37.145119" lon="-3.523385">
			<ele>1217.000000</ele>
		<time>2015-04-25T10:39:31Z</time>
		</trkpt>

		<trkpt lat="37.144984" lon="-3.523474">
			<ele>1211.000000</ele>
		<time>2015-04-25T10:39:34Z</time>
		</trkpt>

		<trkpt lat="37.144853" lon="-3.523689">
			<ele>1206.000000</ele>
		<time>2015-04-25T10:39:37Z</time>
		</trkpt>

		<trkpt lat="37.144791" lon="-3.523914">
			<ele>1203.000000</ele>
		<time>2015-04-25T10:39:40Z</time>
		</trkpt>

		<trkpt lat="37.144820" lon="-3.524154">
			<ele>1201.000000</ele>
		<time>2015-04-25T10:39:43Z</time>
		</trkpt>

		<trkpt lat="37.144958" lon="-3.524326">
			<ele>1197.000000</ele>
		<time>2015-04-25T10:39:46Z</time>
		</trkpt>

		<trkpt lat="37.145189" lon="-3.524328">
			<ele>1188.000000</ele>
		<time>2015-04-25T10:39:49Z</time>
		</trkpt>

		<trkpt lat="37.145424" lon="-3.524239">
			<ele>1185.000000</ele>
		<time>2015-04-25T10:39:52Z</time>
		</trkpt>

		<trkpt lat="37.145626" lon="-3.524117">
			<ele>1183.000000</ele>
		<time>2015-04-25T10:39:55Z</time>
		</trkpt>

		<trkpt lat="37.145804" lon="-3.523967">
			<ele>1182.000000</ele>
		<time>2015-04-25T10:39:58Z</time>
		</trkpt>

		<trkpt lat="37.146000" lon="-3.523796">
			<ele>1180.000000</ele>
		<time>2015-04-25T10:40:01Z</time>
		</trkpt>

		<trkpt lat="37.146142" lon="-3.523637">
			<ele>1180.000000</ele>
		<time>2015-04-25T10:40:04Z</time>
		</trkpt>

		<trkpt lat="37.146334" lon="-3.523493">
			<ele>1175.000000</ele>
		<time>2015-04-25T10:40:07Z</time>
		</trkpt>

		<trkpt lat="37.146519" lon="-3.523448">
			<ele>1175.000000</ele>
		<time>2015-04-25T10:40:10Z</time>
		</trkpt>

		<trkpt lat="37.146701" lon="-3.523422">
			<ele>1173.000000</ele>
		<time>2015-04-25T10:40:13Z</time>
		</trkpt>

		<trkpt lat="37.146878" lon="-3.523397">
			<ele>1170.000000</ele>
		<time>2015-04-25T10:40:16Z</time>
		</trkpt>

		<trkpt lat="37.147075" lon="-3.523363">
			<ele>1169.000000</ele>
		<time>2015-04-25T10:40:19Z</time>
		</trkpt>

		<trkpt lat="37.147259" lon="-3.523326">
			<ele>1169.000000</ele>
		<time>2015-04-25T10:40:22Z</time>
		</trkpt>

		<trkpt lat="37.147436" lon="-3.523322">
			<ele>1167.000000</ele>
		<time>2015-04-25T10:40:25Z</time>
		</trkpt>

		<trkpt lat="37.147615" lon="-3.523200">
			<ele>1163.000000</ele>
		<time>2015-04-25T10:40:28Z</time>
		</trkpt>

		<trkpt lat="37.147826" lon="-3.523085">
			<ele>1159.000000</ele>
		<time>2015-04-25T10:40:31Z</time>
		</trkpt>

		<trkpt lat="37.148017" lon="-3.523105">
			<ele>1162.000000</ele>
		<time>2015-04-25T10:40:34Z</time>
		</trkpt>

		<trkpt lat="37.148184" lon="-3.523221">
			<ele>1156.000000</ele>
		<time>2015-04-25T10:40:37Z</time>
		</trkpt>

		<trkpt lat="37.148229" lon="-3.523425">
			<ele>1150.000000</ele>
		<time>2015-04-25T10:40:40Z</time>
		</trkpt>

		<trkpt lat="37.148099" lon="-3.523679">
			<ele>1146.000000</ele>
		<time>2015-04-25T10:40:43Z</time>
		</trkpt>

		<trkpt lat="37.147942" lon="-3.523832">
			<ele>1146.000000</ele>
		<time>2015-04-25T10:40:46Z</time>
		</trkpt>

		<trkpt lat="37.147758" lon="-3.524020">
			<ele>1144.000000</ele>
		<time>2015-04-25T10:40:49Z</time>
		</trkpt>

		<trkpt lat="37.147611" lon="-3.524205">
			<ele>1141.000000</ele>
		<time>2015-04-25T10:40:52Z</time>
		</trkpt>

		<trkpt lat="37.147454" lon="-3.524400">
			<ele>1137.000000</ele>
		<time>2015-04-25T10:40:55Z</time>
		</trkpt>

		<trkpt lat="37.147298" lon="-3.524580">
			<ele>1140.000000</ele>
		<time>2015-04-25T10:40:58Z</time>
		</trkpt>

		<trkpt lat="37.147127" lon="-3.524735">
			<ele>1136.000000</ele>
		<time>2015-04-25T10:41:01Z</time>
		</trkpt>

		<trkpt lat="37.146956" lon="-3.524863">
			<ele>1132.000000</ele>
		<time>2015-04-25T10:41:04Z</time>
		</trkpt>

		<trkpt lat="37.146781" lon="-3.525017">
			<ele>1132.000000</ele>
		<time>2015-04-25T10:41:07Z</time>
		</trkpt>

		<trkpt lat="37.146666" lon="-3.525184">
			<ele>1129.000000</ele>
		<time>2015-04-25T10:41:10Z</time>
		</trkpt>

		<trkpt lat="37.146632" lon="-3.525435">
			<ele>1126.000000</ele>
		<time>2015-04-25T10:41:13Z</time>
		</trkpt>

		<trkpt lat="37.146736" lon="-3.525586">
			<ele>1122.000000</ele>
		<time>2015-04-25T10:41:16Z</time>
		</trkpt>

		<trkpt lat="37.146867" lon="-3.525680">
			<ele>1120.000000</ele>
		<time>2015-04-25T10:41:19Z</time>
		</trkpt>

		<trkpt lat="37.147097" lon="-3.525694">
			<ele>1119.000000</ele>
		<time>2015-04-25T10:41:22Z</time>
		</trkpt>

		<trkpt lat="37.147296" lon="-3.525652">
			<ele>1121.000000</ele>
		<time>2015-04-25T10:41:25Z</time>
		</trkpt>

		<trkpt lat="37.147474" lon="-3.525562">
			<ele>1119.000000</ele>
		<time>2015-04-25T10:41:28Z</time>
		</trkpt>

		<trkpt lat="37.147694" lon="-3.525509">
			<ele>1114.000000</ele>
		<time>2015-04-25T10:41:31Z</time>
		</trkpt>

		<trkpt lat="37.147907" lon="-3.525548">
			<ele>1113.000000</ele>
		<time>2015-04-25T10:41:34Z</time>
		</trkpt>

		<trkpt lat="37.148067" lon="-3.525654">
			<ele>1109.000000</ele>
		<time>2015-04-25T10:41:37Z</time>
		</trkpt>

		<trkpt lat="37.148236" lon="-3.525786">
			<ele>1114.000000</ele>
		<time>2015-04-25T10:41:40Z</time>
		</trkpt>

		<trkpt lat="37.148370" lon="-3.525860">
			<ele>1112.000000</ele>
		<time>2015-04-25T10:41:43Z</time>
		</trkpt>

		<trkpt lat="37.148475" lon="-3.526080">
			<ele>1111.000000</ele>
		<time>2015-04-25T10:41:46Z</time>
		</trkpt>

		<trkpt lat="37.148413" lon="-3.526311">
			<ele>1109.000000</ele>
		<time>2015-04-25T10:41:49Z</time>
		</trkpt>

		<trkpt lat="37.148254" lon="-3.526516">
			<ele>1108.000000</ele>
		<time>2015-04-25T10:41:52Z</time>
		</trkpt>

		<trkpt lat="37.148163" lon="-3.526699">
			<ele>1104.000000</ele>
		<time>2015-04-25T10:41:55Z</time>
		</trkpt>

		<trkpt lat="37.148205" lon="-3.526930">
			<ele>1097.000000</ele>
		<time>2015-04-25T10:41:58Z</time>
		</trkpt>

		<trkpt lat="37.148359" lon="-3.527076">
			<ele>1094.000000</ele>
		<time>2015-04-25T10:42:01Z</time>
		</trkpt>

		<trkpt lat="37.148570" lon="-3.527087">
			<ele>1090.000000</ele>
		<time>2015-04-25T10:42:04Z</time>
		</trkpt>

		<trkpt lat="37.148789" lon="-3.527037">
			<ele>1084.000000</ele>
		<time>2015-04-25T10:42:07Z</time>
		</trkpt>

		<trkpt lat="37.148970" lon="-3.526923">
			<ele>1081.000000</ele>
		<time>2015-04-25T10:42:10Z</time>
		</trkpt>

		<trkpt lat="37.149161" lon="-3.526829">
			<ele>1079.000000</ele>
		<time>2015-04-25T10:42:13Z</time>
		</trkpt>

		<trkpt lat="37.149388" lon="-3.526748">
			<ele>1081.000000</ele>
		<time>2015-04-25T10:42:16Z</time>
		</trkpt>

		<trkpt lat="37.149545" lon="-3.526629">
			<ele>1079.000000</ele>
		<time>2015-04-25T10:42:19Z</time>
		</trkpt>

		<trkpt lat="37.149715" lon="-3.526500">
			<ele>1079.000000</ele>
		<time>2015-04-25T10:42:22Z</time>
		</trkpt>

		<trkpt lat="37.149925" lon="-3.526379">
			<ele>1078.000000</ele>
		<time>2015-04-25T10:42:25Z</time>
		</trkpt>

		<trkpt lat="37.150133" lon="-3.526276">
			<ele>1078.000000</ele>
		<time>2015-04-25T10:42:28Z</time>
		</trkpt>

		<trkpt lat="37.150345" lon="-3.526166">
			<ele>1076.000000</ele>
		<time>2015-04-25T10:42:31Z</time>
		</trkpt>

		<trkpt lat="37.150516" lon="-3.526024">
			<ele>1071.000000</ele>
		<time>2015-04-25T10:42:34Z</time>
		</trkpt>

		<trkpt lat="37.150689" lon="-3.525801">
			<ele>1065.000000</ele>
		<time>2015-04-25T10:42:37Z</time>
		</trkpt>

		<trkpt lat="37.150890" lon="-3.525580">
			<ele>1062.000000</ele>
		<time>2015-04-25T10:42:40Z</time>
		</trkpt>

		<trkpt lat="37.151118" lon="-3.525616">
			<ele>1062.000000</ele>
		<time>2015-04-25T10:42:43Z</time>
		</trkpt>

		<trkpt lat="37.151257" lon="-3.525779">
			<ele>1063.000000</ele>
		<time>2015-04-25T10:42:46Z</time>
		</trkpt>

		<trkpt lat="37.151278" lon="-3.525981">
			<ele>1064.000000</ele>
		<time>2015-04-25T10:42:49Z</time>
		</trkpt>

		<trkpt lat="37.151224" lon="-3.526188">
			<ele>1059.000000</ele>
		<time>2015-04-25T10:42:52Z</time>
		</trkpt>

		<trkpt lat="37.151255" lon="-3.526380">
			<ele>1056.000000</ele>
		<time>2015-04-25T10:42:55Z</time>
		</trkpt>

		<trkpt lat="37.151496" lon="-3.526433">
			<ele>1054.000000</ele>
		<time>2015-04-25T10:42:58Z</time>
		</trkpt>

		<trkpt lat="37.151691" lon="-3.526128">
			<ele>1050.000000</ele>
		<time>2015-04-25T10:43:01Z</time>
		</trkpt>

		<trkpt lat="37.151873" lon="-3.525842">
			<ele>1047.000000</ele>
		<time>2015-04-25T10:43:04Z</time>
		</trkpt>

		<trkpt lat="37.152102" lon="-3.525655">
			<ele>1046.000000</ele>
		<time>2015-04-25T10:43:07Z</time>
		</trkpt>

		<trkpt lat="37.152338" lon="-3.525569">
			<ele>1044.000000</ele>
		<time>2015-04-25T10:43:10Z</time>
		</trkpt>

		<trkpt lat="37.152574" lon="-3.525660">
			<ele>1035.000000</ele>
		<time>2015-04-25T10:43:13Z</time>
		</trkpt>

		<trkpt lat="37.152660" lon="-3.525842">
			<ele>1031.000000</ele>
		<time>2015-04-25T10:43:16Z</time>
		</trkpt>

		<trkpt lat="37.152739" lon="-3.526062">
			<ele>1028.000000</ele>
		<time>2015-04-25T10:43:19Z</time>
		</trkpt>

		<trkpt lat="37.152763" lon="-3.526270">
			<ele>1029.000000</ele>
		<time>2015-04-25T10:43:22Z</time>
		</trkpt>

		<trkpt lat="37.152773" lon="-3.526468">
			<ele>1029.000000</ele>
		<time>2015-04-25T10:43:25Z</time>
		</trkpt>

		<trkpt lat="37.152755" lon="-3.526670">
			<ele>1024.000000</ele>
		<time>2015-04-25T10:43:28Z</time>
		</trkpt>

		<trkpt lat="37.152778" lon="-3.526859">
			<ele>1019.000000</ele>
		<time>2015-04-25T10:43:31Z</time>
		</trkpt>

		<trkpt lat="37.152756" lon="-3.527104">
			<ele>1015.000000</ele>
		<time>2015-04-25T10:43:34Z</time>
		</trkpt>

		<trkpt lat="37.152764" lon="-3.527306">
			<ele>1012.000000</ele>
		<time>2015-04-25T10:43:37Z</time>
		</trkpt>

		<trkpt lat="37.152766" lon="-3.527537">
			<ele>1009.000000</ele>
		<time>2015-04-25T10:43:40Z</time>
		</trkpt>

		<trkpt lat="37.152761" lon="-3.527753">
			<ele>1006.000000</ele>
		<time>2015-04-25T10:43:43Z</time>
		</trkpt>

		<trkpt lat="37.152764" lon="-3.527934">
			<ele>1002.000000</ele>
		<time>2015-04-25T10:43:46Z</time>
		</trkpt>

		<trkpt lat="37.152773" lon="-3.528167">
			<ele>998.000000</ele>
		<time>2015-04-25T10:43:49Z</time>
		</trkpt>

		<trkpt lat="37.152776" lon="-3.528395">
			<ele>994.000000</ele>
		<time>2015-04-25T10:43:52Z</time>
		</trkpt>

		<trkpt lat="37.152803" lon="-3.528610">
			<ele>992.000000</ele>
		<time>2015-04-25T10:43:55Z</time>
		</trkpt>

		<trkpt lat="37.152822" lon="-3.528839">
			<ele>990.000000</ele>
		<time>2015-04-25T10:43:58Z</time>
		</trkpt>

		<trkpt lat="37.152869" lon="-3.529075">
			<ele>986.000000</ele>
		<time>2015-04-25T10:44:01Z</time>
		</trkpt>

		<trkpt lat="37.152879" lon="-3.529319">
			<ele>982.000000</ele>
		<time>2015-04-25T10:44:04Z</time>
		</trkpt>

		<trkpt lat="37.152885" lon="-3.529545">
			<ele>979.000000</ele>
		<time>2015-04-25T10:44:07Z</time>
		</trkpt>

		<trkpt lat="37.152905" lon="-3.529760">
			<ele>976.000000</ele>
		<time>2015-04-25T10:44:10Z</time>
		</trkpt>

		<trkpt lat="37.152883" lon="-3.529990">
			<ele>974.000000</ele>
		<time>2015-04-25T10:44:13Z</time>
		</trkpt>

		<trkpt lat="37.152833" lon="-3.530209">
			<ele>969.000000</ele>
		<time>2015-04-25T10:44:16Z</time>
		</trkpt>

		<trkpt lat="37.152750" lon="-3.530403">
			<ele>965.000000</ele>
		<time>2015-04-25T10:44:19Z</time>
		</trkpt>

		<trkpt lat="37.152642" lon="-3.530584">
			<ele>964.000000</ele>
		<time>2015-04-25T10:44:22Z</time>
		</trkpt>

		<trkpt lat="37.152526" lon="-3.530790">
			<ele>963.000000</ele>
		<time>2015-04-25T10:44:25Z</time>
		</trkpt>

		<trkpt lat="37.152384" lon="-3.530922">
			<ele>955.000000</ele>
		<time>2015-04-25T10:44:28Z</time>
		</trkpt>

		<trkpt lat="37.152289" lon="-3.531141">
			<ele>950.000000</ele>
		<time>2015-04-25T10:44:31Z</time>
		</trkpt>

		<trkpt lat="37.152303" lon="-3.531346">
			<ele>943.000000</ele>
		<time>2015-04-25T10:44:34Z</time>
		</trkpt>

		<trkpt lat="37.152320" lon="-3.531535">
			<ele>939.000000</ele>
		<time>2015-04-25T10:44:37Z</time>
		</trkpt>

		<trkpt lat="37.152235" lon="-3.531542">
			<ele>927.000000</ele>
		<time>2015-04-25T10:44:40Z</time>
		</trkpt>

		<trkpt lat="37.152430" lon="-3.531732">
			<ele>922.000000</ele>
		<time>2015-04-25T10:44:43Z</time>
		</trkpt>

		<trkpt lat="37.152633" lon="-3.531944">
			<ele>911.000000</ele>
		<time>2015-04-25T10:44:46Z</time>
		</trkpt>

		<trkpt lat="37.152838" lon="-3.532052">
			<ele>908.000000</ele>
		<time>2015-04-25T10:44:49Z</time>
		</trkpt>

		<trkpt lat="37.153028" lon="-3.532150">
			<ele>908.000000</ele>
		<time>2015-04-25T10:44:52Z</time>
		</trkpt>

		<trkpt lat="37.153223" lon="-3.532273">
			<ele>907.000000</ele>
		<time>2015-04-25T10:44:55Z</time>
		</trkpt>

		<trkpt lat="37.153376" lon="-3.532419">
			<ele>905.000000</ele>
		<time>2015-04-25T10:44:58Z</time>
		</trkpt>

		<trkpt lat="37.153544" lon="-3.532604">
			<ele>904.000000</ele>
		<time>2015-04-25T10:45:01Z</time>
		</trkpt>

		<trkpt lat="37.153651" lon="-3.532829">
			<ele>903.000000</ele>
		<time>2015-04-25T10:45:04Z</time>
		</trkpt>

		<trkpt lat="37.153766" lon="-3.533030">
			<ele>898.000000</ele>
		<time>2015-04-25T10:45:07Z</time>
		</trkpt>

		<trkpt lat="37.153860" lon="-3.533246">
			<ele>896.000000</ele>
		<time>2015-04-25T10:45:10Z</time>
		</trkpt>

		<trkpt lat="37.153888" lon="-3.533452">
			<ele>892.000000</ele>
		<time>2015-04-25T10:45:13Z</time>
		</trkpt>

		<trkpt lat="37.153853" lon="-3.533699">
			<ele>889.000000</ele>
		<time>2015-04-25T10:45:16Z</time>
		</trkpt>

		<trkpt lat="37.153772" lon="-3.533894">
			<ele>883.000000</ele>
		<time>2015-04-25T10:45:19Z</time>
		</trkpt>

		<trkpt lat="37.153698" lon="-3.534080">
			<ele>879.000000</ele>
		<time>2015-04-25T10:45:22Z</time>
		</trkpt>

		<trkpt lat="37.153633" lon="-3.534312">
			<ele>875.000000</ele>
		<time>2015-04-25T10:45:25Z</time>
		</trkpt>

		<trkpt lat="37.153664" lon="-3.534578">
			<ele>871.000000</ele>
		<time>2015-04-25T10:45:28Z</time>
		</trkpt>

		<trkpt lat="37.153832" lon="-3.534755">
			<ele>868.000000</ele>
		<time>2015-04-25T10:45:31Z</time>
		</trkpt>

		<trkpt lat="37.154058" lon="-3.534693">
			<ele>871.000000</ele>
		<time>2015-04-25T10:45:34Z</time>
		</trkpt>

		<trkpt lat="37.154204" lon="-3.534472">
			<ele>866.000000</ele>
		<time>2015-04-25T10:45:37Z</time>
		</trkpt>

		<trkpt lat="37.154251" lon="-3.534073">
			<ele>858.000000</ele>
		<time>2015-04-25T10:45:40Z</time>
		</trkpt>

		<trkpt lat="37.153998" lon="-3.533849">
			<ele>857.000000</ele>
		<time>2015-04-25T10:45:43Z</time>
		</trkpt>

		<trkpt lat="37.153783" lon="-3.533960">
			<ele>849.000000</ele>
		<time>2015-04-25T10:45:46Z</time>
		</trkpt>

		<trkpt lat="37.153659" lon="-3.534232">
			<ele>848.000000</ele>
		<time>2015-04-25T10:45:49Z</time>
		</trkpt>

		<trkpt lat="37.154046" lon="-3.534248">
			<ele>845.000000</ele>
		<time>2015-04-25T10:45:52Z</time>
		</trkpt>

		<trkpt lat="37.154228" lon="-3.534325">
			<ele>838.000000</ele>
		<time>2015-04-25T10:45:55Z</time>
		</trkpt>

		<trkpt lat="37.154440" lon="-3.534365">
			<ele>835.000000</ele>
		<time>2015-04-25T10:45:58Z</time>
		</trkpt>

		<trkpt lat="37.154334" lon="-3.534615">
			<ele>830.000000</ele>
		<time>2015-04-25T10:46:01Z</time>
		</trkpt>

		<trkpt lat="37.154070" lon="-3.534710">
			<ele>828.000000</ele>
		<time>2015-04-25T10:46:04Z</time>
		</trkpt>

		<trkpt lat="37.154073" lon="-3.534980">
			<ele>823.000000</ele>
		<time>2015-04-25T10:46:07Z</time>
		</trkpt>

		<trkpt lat="37.154216" lon="-3.535101">
			<ele>818.000000</ele>
		<time>2015-04-25T10:46:10Z</time>
		</trkpt>

		<trkpt lat="37.154300" lon="-3.535196">
			<ele>816.000000</ele>
		<time>2015-04-25T10:46:13Z</time>
		</trkpt>

		<trkpt lat="37.154309" lon="-3.535254">
			<ele>814.000000</ele>
		<time>2015-04-25T10:46:16Z</time>
		</trkpt>

		<trkpt lat="37.154319" lon="-3.535222">
			<ele>806.000000</ele>
		<time>2015-04-25T10:46:51Z</time>
		</trkpt>

	</trkseg>
</trk>
</gpx>

